Time;durP1;ratioP1;P1;durP2;ratioP2;P2;SDS_P1;SDS_P2;PMS_P1;PMS_P2;Temp;Humidity;BMP_temperature;BMP_pressure;BME280_temperature;BME280_humidity;BME280_pressure;Samples;Min_cycle;Max_cycle;Signal;HPM_P1;HPM_P2
2021/03/10 00:01:05;;;;;;;29.77;14.60;;;4.20;99.90;;;;;;5028682;28;20052;-70
2021/03/10 00:03:31;;;;;;;28.60;14.17;;;4.20;99.90;;;;;;5027301;28;20072;-69
2021/03/10 00:05:58;;;;;;;30.47;15.60;;;4.30;99.90;;;;;;5028189;28;20045;-70
2021/03/10 00:08:24;;;;;;;34.23;15.83;;;4.30;99.90;;;;;;5030008;28;20137;-70
2021/03/10 00:10:52;;;;;;;28.50;14.80;;;4.20;99.90;;;;;;5032660;28;20056;-69
2021/03/10 00:13:18;;;;;;;31.43;14.83;;;4.20;99.90;;;;;;5036674;28;20607;-70
2021/03/10 00:15:45;;;;;;;29.30;14.40;;;4.30;99.90;;;;;;5037321;28;20048;-69
2021/03/10 00:18:11;;;;;;;28.50;14.67;;;4.30;99.90;;;;;;5036425;28;20059;-69
2021/03/10 00:20:38;;;;;;;29.00;14.97;;;4.30;99.90;;;;;;5036409;28;20051;-69
2021/03/10 00:23:04;;;;;;;33.87;14.93;;;4.30;99.90;;;;;;5033265;28;20048;-69
2021/03/10 00:25:31;;;;;;;34.43;16.73;;;4.30;99.90;;;;;;5036881;28;20083;-70
2021/03/10 00:27:58;;;;;;;37.23;15.67;;;4.30;99.90;;;;;;5037161;28;20294;-69
2021/03/10 00:30:25;;;;;;;29.00;15.23;;;4.30;99.90;;;;;;5036417;28;21373;-70
2021/03/10 00:32:51;;;;;;;29.30;14.60;;;4.30;99.90;;;;;;5034834;28;20102;-69
2021/03/10 00:35:18;;;;;;;29.50;14.97;;;4.30;99.90;;;;;;5036185;28;20051;-70
2021/03/10 00:37:44;;;;;;;28.00;14.50;;;4.50;99.90;;;;;;5036196;28;20063;-70
2021/03/10 00:40:11;;;;;;;;;;;4.60;99.90;;;;;;5036183;28;20045;-69
2021/03/10 00:42:37;;;;;;;29.07;15.57;;;4.50;99.90;;;;;;5035269;28;19927;-69
2021/03/10 00:45:06;;;;;;;25.63;12.80;;;4.50;99.90;;;;;;5036507;28;20712;-71
2021/03/10 00:47:32;;;;;;;26.40;13.83;;;4.40;99.90;;;;;;5036474;28;20455;-69
2021/03/10 00:49:59;;;;;;;30.00;14.60;;;4.40;99.90;;;;;;5035702;28;20080;-70
2021/03/10 00:52:25;;;;;;;27.47;13.77;;;4.40;99.90;;;;;;5034782;28;20094;-69
2021/03/10 00:54:52;;;;;;;28.27;14.33;;;4.40;99.90;;;;;;5036353;28;20051;-70
2021/03/10 00:57:18;;;;;;;;;;;4.40;99.90;;;;;;5036121;28;20289;-70
2021/03/10 00:59:44;;;;;;;30.27;14.37;;;4.40;99.90;;;;;;5036714;28;19931;-70
2021/03/10 01:02:12;;;;;;;28.10;13.87;;;4.30;99.90;;;;;;5036612;28;20056;-70
2021/03/10 01:04:38;;;;;;;28.27;14.23;;;4.30;99.90;;;;;;5034890;28;20064;-70
2021/03/10 01:07:05;;;;;;;30.17;14.93;;;4.40;99.90;;;;;;5035824;28;20045;-70
2021/03/10 01:09:31;;;;;;;29.30;14.80;;;4.50;99.90;;;;;;5038073;28;20048;-70
2021/03/10 01:11:58;;;;;;;32.10;14.07;;;4.40;99.90;;;;;;5038188;28;20114;-70
2021/03/10 01:14:24;;;;;;;28.40;14.87;;;4.40;99.90;;;;;;5035690;28;20677;-71
2021/03/10 01:16:51;;;;;;;29.10;14.70;;;4.30;99.90;;;;;;5037820;28;20057;-70
2021/03/10 01:19:18;;;;;;;31.70;13.93;;;4.40;99.90;;;;;;5036295;28;20048;-70
2021/03/10 01:21:45;;;;;;;29.23;14.53;;;4.40;99.90;;;;;;5036978;28;20587;-71
2021/03/10 01:24:11;;;;;;;32.00;14.67;;;4.40;99.90;;;;;;5034887;28;20141;-71
2021/03/10 01:26:38;;;;;;;25.97;13.70;;;4.40;99.90;;;;;;5036641;28;20045;-69
2021/03/10 01:29:05;;;;;;;29.67;14.57;;;4.40;99.90;;;;;;5036972;28;20469;-70
2021/03/10 01:31:31;;;;;;;31.40;14.60;;;4.40;99.90;;;;;;5037456;28;20048;-70
2021/03/10 01:33:58;;;;;;;31.90;15.50;;;4.40;99.90;;;;;;5035780;28;20123;-69
2021/03/10 01:36:25;;;;;;;28.90;14.73;;;4.50;99.90;;;;;;5036609;28;20512;-71
2021/03/10 01:38:52;;;;;;;28.57;15.37;;;4.50;99.90;;;;;;5036308;28;20106;-69
2021/03/10 01:41:18;;;;;;;29.73;15.00;;;4.50;99.90;;;;;;5037178;28;20051;-71
2021/03/10 01:43:44;;;;;;;27.93;15.37;;;4.60;99.90;;;;;;5035212;28;20049;-71
2021/03/10 01:46:11;;;;;;;30.27;14.57;;;4.60;99.90;;;;;;5037401;28;20040;-69
2021/03/10 01:48:38;;;;;;;28.57;14.70;;;4.50;99.90;;;;;;5036064;28;20090;-71
2021/03/10 01:51:06;;;;;;;31.87;15.70;;;4.50;99.90;;;;;;5035314;28;20048;-69
2021/03/10 01:53:33;;;;;;;28.13;14.83;;;4.60;99.90;;;;;;5036230;28;20048;-70
2021/03/10 01:56:01;;;;;;;28.70;15.20;;;4.70;99.90;;;;;;5036404;28;20056;-70
2021/03/10 01:58:27;;;;;;;30.83;16.87;;;4.60;99.90;;;;;;5036440;28;20079;-70
2021/03/10 02:00:54;;;;;;;31.70;15.93;;;4.60;99.90;;;;;;5036710;28;20048;-69
2021/03/10 02:03:21;;;;;;;32.13;15.40;;;4.70;99.90;;;;;;5036477;28;20090;-70
2021/03/10 02:05:47;;;;;;;31.13;16.83;;;4.70;99.90;;;;;;5036648;28;20145;-69
2021/03/10 02:08:30;;;;;;;31.53;16.50;;;4.60;99.90;;;;;;5036438;28;20084;-70
2021/03/10 02:11:12;;;;;;;34.10;16.33;;;4.60;99.90;;;;;;5036793;28;20257;-71
2021/03/10 02:13:53;;;;;;;33.57;16.73;;;4.60;99.90;;;;;;5035283;28;20052;-70
2021/03/10 02:16:27;;;;;;;32.60;15.97;;;4.60;99.90;;;;;;5037057;28;20133;-70
2021/03/10 02:19:01;;;;;;;34.50;16.97;;;4.60;99.90;;;;;;5037689;28;20056;-70
2021/03/10 02:21:38;;;;;;;33.60;16.57;;;4.60;99.90;;;;;;5036281;28;20084;-69
2021/03/10 02:24:20;;;;;;;32.47;17.17;;;4.60;99.90;;;;;;5036817;28;20052;-70
2021/03/10 02:27:32;;;;;;;32.67;16.70;;;4.50;99.90;;;;;;5036232;28;20087;-70
2021/03/10 02:30:04;;;;;;;34.63;17.63;;;4.70;99.90;;;;;;5036710;28;20540;-70
2021/03/10 02:32:33;;;;;;;32.53;16.70;;;4.60;99.90;;;;;;5035632;28;20477;-70
2021/03/10 02:35:00;;;;;;;38.03;16.20;;;4.60;99.90;;;;;;5037140;28;20056;-70
2021/03/10 02:37:29;;;;;;;34.67;17.77;;;4.50;99.90;;;;;;5037396;28;20639;-70
2021/03/10 02:39:56;;;;;;;36.30;18.77;;;4.50;99.90;;;;;;5036564;28;20056;-71
2021/03/10 02:42:23;;;;;;;37.20;19.43;;;4.60;99.90;;;;;;5034655;28;20107;-70
2021/03/10 02:44:50;;;;;;;38.20;19.17;;;4.50;99.90;;;;;;5038504;28;20511;-71
2021/03/10 02:47:18;;;;;;;38.97;18.53;;;4.50;99.90;;;;;;5036619;28;20094;-70
2021/03/10 02:49:46;;;;;;;38.17;19.97;;;4.50;99.90;;;;;;5036377;28;20132;-70
2021/03/10 02:52:13;;;;;;;35.93;18.00;;;4.50;99.90;;;;;;5037237;28;20508;-69
2021/03/10 02:54:42;;;;;;;38.83;19.03;;;4.50;99.90;;;;;;5036436;28;20114;-70
2021/03/10 02:57:09;;;;;;;39.17;19.53;;;4.60;99.90;;;;;;5037345;28;21252;-71
2021/03/10 02:59:36;;;;;;;40.80;19.70;;;4.60;99.90;;;;;;5036615;28;20086;-69
2021/03/10 03:02:03;;;;;;;42.20;19.17;;;4.60;99.90;;;;;;5036740;28;20048;-71
2021/03/10 03:04:30;;;;;;;44.20;19.20;;;4.60;99.90;;;;;;5036029;28;20114;-70
2021/03/10 03:06:56;;;;;;;44.53;20.37;;;4.50;99.90;;;;;;5035883;28;20090;-70
2021/03/10 03:09:23;;;;;;;39.93;19.27;;;4.60;99.90;;;;;;5036308;28;20049;-70
2021/03/10 03:11:50;;;;;;;40.47;20.53;;;4.50;99.90;;;;;;5036636;28;20126;-69
2021/03/10 03:14:18;;;;;;;41.60;19.47;;;4.60;99.90;;;;;;5035717;28;20080;-70
2021/03/10 03:16:45;;;;;;;42.80;20.77;;;4.50;99.90;;;;;;5037545;28;20095;-70
2021/03/10 03:19:11;;;;;;;39.97;20.20;;;4.40;99.90;;;;;;5037220;28;20048;-71
2021/03/10 03:21:40;;;;;;;37.93;19.87;;;4.40;99.90;;;;;;5039810;28;20095;-69
2021/03/10 03:24:07;;;;;;;42.37;20.70;;;4.40;99.90;;;;;;5039382;28;20130;-69
2021/03/10 03:26:34;;;;;;;41.43;20.30;;;4.30;99.90;;;;;;5040326;28;20535;-70
2021/03/10 03:29:02;;;;;;;40.07;20.53;;;4.30;99.90;;;;;;5040469;28;20095;-70
2021/03/10 03:31:31;;;;;;;39.63;19.63;;;4.30;99.90;;;;;;5041436;28;20048;-70
2021/03/10 03:33:58;;;;;;;38.67;21.50;;;4.50;99.90;;;;;;5043871;28;20571;-70
2021/03/10 03:36:26;;;;;;;42.07;21.23;;;4.40;99.90;;;;;;5057180;28;20048;-70
2021/03/10 03:38:54;;;;;;;46.47;21.23;;;4.30;99.90;;;;;;5058477;28;20448;-71
2021/03/10 03:41:21;;;;;;;42.20;19.67;;;4.40;99.90;;;;;;5056804;28;20055;-70
2021/03/10 03:43:49;;;;;;;43.87;20.67;;;4.40;99.90;;;;;;5054530;28;20056;-71
2021/03/10 03:46:16;;;;;;;44.33;21.40;;;4.40;99.90;;;;;;5056029;28;20055;-71
2021/03/10 03:48:42;;;;;;;;;;;4.40;99.90;;;;;;5054891;28;20099;-70
2021/03/10 03:51:23;;;;;;;46.70;22.63;;;4.60;99.90;;;;;;5054813;28;19924;-71
2021/03/10 03:53:55;;;;;;;43.27;21.37;;;4.60;99.90;;;;;;5053022;28;20066;-70
2021/03/10 03:56:21;;;;;;;43.93;22.00;;;4.50;99.90;;;;;;5045026;28;20091;-70
2021/03/10 03:58:48;;;;;;;43.27;22.27;;;4.60;99.90;;;;;;5041455;28;20079;-70
2021/03/10 04:01:14;;;;;;;42.00;20.97;;;4.50;99.90;;;;;;5040177;28;20087;-69
2021/03/10 04:03:41;;;;;;;44.37;22.60;;;4.50;99.90;;;;;;5039884;28;20049;-70
2021/03/10 04:06:08;;;;;;;42.63;20.33;;;4.70;99.90;;;;;;5041033;28;20083;-69
2021/03/10 04:08:34;;;;;;;47.90;22.47;;;4.60;99.90;;;;;;5039753;28;20076;-70
2021/03/10 04:11:02;;;;;;;46.13;22.47;;;4.50;99.90;;;;;;5038977;28;20088;-70
2021/03/10 04:13:29;;;;;;;41.10;21.27;;;4.50;99.90;;;;;;5038053;28;20045;-71
2021/03/10 04:15:55;;;;;;;45.37;22.43;;;4.50;99.90;;;;;;5038961;28;20052;-71
2021/03/10 04:18:22;;;;;;;42.50;21.90;;;4.40;99.90;;;;;;5039847;28;20044;-70
2021/03/10 04:20:48;;;;;;;45.30;20.83;;;4.40;99.90;;;;;;5038664;28;20389;-71
2021/03/10 04:23:15;;;;;;;38.47;20.57;;;4.40;99.90;;;;;;5038652;28;20049;-70
2021/03/10 04:25:42;;;;;;;47.73;23.20;;;4.40;99.90;;;;;;5038767;28;20159;-70
2021/03/10 04:28:09;;;;;;;44.60;21.23;;;4.40;99.90;;;;;;5037988;28;20059;-70
2021/03/10 04:30:36;;;;;;;52.00;23.53;;;4.60;99.90;;;;;;5037608;28;20148;-70
2021/03/10 04:33:03;;;;;;;40.27;20.40;;;4.50;99.90;;;;;;5038001;28;20084;-70
2021/03/10 04:35:30;;;;;;;43.10;21.20;;;4.40;99.90;;;;;;5038803;28;20094;-69
2021/03/10 04:37:56;;;;;;;40.87;20.10;;;4.50;99.90;;;;;;5037926;28;20045;-70
2021/03/10 04:40:23;;;;;;;43.20;21.10;;;4.50;99.90;;;;;;5038320;28;20040;-70
2021/03/10 04:42:49;;;;;;;46.93;22.67;;;4.50;99.90;;;;;;5038298;28;20052;-70
2021/03/10 04:45:17;;;;;;;46.10;22.17;;;4.50;99.90;;;;;;5038936;28;20052;-69
2021/03/10 04:47:45;;;;;;;46.13;20.80;;;4.50;99.90;;;;;;5038023;28;20087;-70
2021/03/10 04:50:13;;;;;;;49.93;24.50;;;4.60;99.90;;;;;;5039294;28;20597;-69
2021/03/10 04:52:40;;;;;;;45.90;22.67;;;4.70;99.90;;;;;;5038642;28;20052;-70
2021/03/10 04:55:08;;;;;;;45.93;22.90;;;4.60;99.90;;;;;;5038275;28;20532;-70
2021/03/10 04:57:35;;;;;;;53.23;23.70;;;4.60;99.90;;;;;;5038966;28;20056;-70
2021/03/10 05:00:02;;;;;;;52.67;23.90;;;4.60;99.90;;;;;;5037330;28;20420;-70
2021/03/10 05:02:29;;;;;;;51.63;23.10;;;4.50;99.90;;;;;;5036905;28;20939;-70
2021/03/10 05:04:55;;;;;;;47.43;23.10;;;4.50;99.90;;;;;;5038899;28;20083;-70
2021/03/10 05:07:22;;;;;;;51.30;22.83;;;4.50;99.90;;;;;;5038310;28;20125;-70
2021/03/10 05:09:49;;;;;;;55.43;25.17;;;4.60;99.90;;;;;;5038040;28;20136;-70
2021/03/10 05:12:15;;;;;;;51.70;24.20;;;4.60;99.90;;;;;;5037226;28;20059;-70
2021/03/10 05:14:42;;;;;;;52.93;23.77;;;4.60;99.90;;;;;;5038344;28;20060;-70
2021/03/10 05:17:08;;;;;;;49.90;23.53;;;4.60;99.90;;;;;;5038247;28;20060;-70
2021/03/10 05:19:36;;;;;;;48.27;23.17;;;4.70;99.90;;;;;;5037955;28;20547;-70
2021/03/10 05:22:02;;;;;;;49.47;22.57;;;4.60;99.90;;;;;;5037521;28;20052;-69
2021/03/10 05:24:29;;;;;;;46.23;22.87;;;4.60;99.90;;;;;;5037078;28;20076;-70
2021/03/10 05:26:55;;;;;;;51.47;24.07;;;4.70;99.90;;;;;;5037166;28;20127;-69
2021/03/10 05:29:22;;;;;;;48.87;23.33;;;4.70;99.90;;;;;;5037115;28;20578;-70
2021/03/10 05:31:48;;;;;;;50.83;23.70;;;4.60;99.90;;;;;;5038065;28;20052;-70
2021/03/10 05:34:15;;;;;;;49.00;22.57;;;4.60;99.90;;;;;;5036747;28;20080;-70
2021/03/10 05:36:42;;;;;;;52.10;23.37;;;4.60;99.90;;;;;;5037921;28;20045;-69
2021/03/10 05:39:09;;;;;;;50.90;23.00;;;4.50;99.90;;;;;;5036814;28;20092;-70
2021/03/10 05:41:35;;;;;;;49.77;22.17;;;4.60;99.90;;;;;;5037107;28;20044;-70
2021/03/10 05:44:02;;;;;;;50.50;23.10;;;4.70;99.90;;;;;;5041884;28;20053;-70
2021/03/10 05:46:30;;;;;;;48.47;21.50;;;4.60;99.90;;;;;;5037692;28;20763;-69
2021/03/10 05:48:57;;;;;;;49.47;22.07;;;4.60;99.90;;;;;;5037078;28;20166;-71
2021/03/10 05:51:23;;;;;;;48.40;21.83;;;4.60;99.90;;;;;;5037384;28;20071;-71
2021/03/10 05:53:51;;;;;;;46.73;21.97;;;4.60;99.90;;;;;;5036636;28;20606;-70
2021/03/10 05:56:18;;;;;;;44.73;21.10;;;4.60;99.90;;;;;;5037665;28;20057;-70
2021/03/10 05:58:54;;;;;;;47.83;23.10;;;4.50;99.90;;;;;;5037180;28;20053;-70
2021/03/10 06:01:21;;;;;;;55.95;25.45;;;4.60;99.90;;;;;;5037004;28;20048;-70
2021/03/10 06:04:00;;;;;;;46.17;22.83;;;4.60;99.90;;;;;;5035744;28;20049;-69
2021/03/10 06:06:33;;;;;;;48.50;22.70;;;4.50;99.90;;;;;;5038173;28;20163;-70
2021/03/10 06:09:13;;;;;;;50.20;23.77;;;4.50;99.90;;;;;;5039670;28;20067;-70
2021/03/10 06:11:52;;;;;;;49.43;22.20;;;4.40;99.90;;;;;;5037665;28;21482;-70
2021/03/10 06:14:19;;;;;;;50.57;23.20;;;4.40;99.90;;;;;;5042650;28;20133;-70
2021/03/10 06:16:46;;;;;;;47.20;22.53;;;4.40;99.90;;;;;;5044657;28;20051;-71
2021/03/10 06:19:12;;;;;;;45.73;20.80;;;4.50;99.90;;;;;;5044802;28;20059;-71
2021/03/10 06:21:49;;;;;;;48.63;22.53;;;4.70;99.90;;;;;;5039928;28;20585;-69
2021/03/10 06:24:17;;;;;;;46.80;22.40;;;4.60;99.90;;;;;;5036297;28;20059;-70
2021/03/10 06:26:53;;;;;;;53.13;22.37;;;4.50;99.90;;;;;;5037373;28;20135;-69
2021/03/10 06:29:20;;;;;;;49.80;22.40;;;4.50;99.90;;;;;;5036255;28;20044;-70
2021/03/10 06:31:47;;;;;;;49.17;21.30;;;4.60;99.90;;;;;;5039832;28;20139;-69
2021/03/10 06:34:14;;;;;;;47.90;21.43;;;4.60;99.90;;;;;;5035261;28;20129;-70
2021/03/10 06:36:43;;;;;;;50.40;24.07;;;4.70;99.90;;;;;;5042990;28;20523;-70
2021/03/10 06:39:12;;;;;;;49.67;24.63;;;4.60;99.90;;;;;;5042966;28;20091;-69
2021/03/10 06:41:42;;;;;;;50.17;23.10;;;4.60;99.90;;;;;;5036088;28;20060;-70
2021/03/10 06:44:16;;;;;;;49.00;22.90;;;4.60;99.90;;;;;;5039391;28;20098;-70
2021/03/10 06:46:53;;;;;;;47.97;21.97;;;4.70;99.90;;;;;;5039437;28;20523;-69
2021/03/10 06:49:20;;;;;;;49.40;22.87;;;4.80;99.90;;;;;;5038378;28;20048;-70
2021/03/10 06:51:54;;;;;;;59.93;24.80;;;4.80;99.90;;;;;;5038999;28;20056;-71
2021/03/10 06:54:22;;;;;;;52.07;23.60;;;4.80;99.90;;;;;;5039883;28;20055;-70
2021/03/10 06:57:00;;;;;;;54.33;22.93;;;4.90;99.90;;;;;;5035237;28;21226;-70
2021/03/10 06:59:26;;;;;;;50.40;23.70;;;5.00;99.90;;;;;;5036560;28;20466;-70
2021/03/10 07:01:53;;;;;;;47.67;23.80;;;5.10;99.90;;;;;;5034665;28;20084;-69
2021/03/10 07:04:21;;;;;;;49.10;24.33;;;5.00;99.90;;;;;;5035863;28;20103;-71
2021/03/10 07:06:50;;;;;;;52.03;25.07;;;5.10;99.90;;;;;;5037221;28;20102;-70
2021/03/10 07:09:17;;;;;;;53.03;24.10;;;5.20;99.90;;;;;;5037552;28;20052;-70
2021/03/10 07:11:45;;;;;;;52.33;24.70;;;5.30;99.90;;;;;;5037336;28;20079;-70
2021/03/10 07:14:13;;;;;;;49.77;24.00;;;5.20;99.90;;;;;;5036264;28;20097;-70
2021/03/10 07:16:40;;;;;;;54.60;23.77;;;5.40;99.90;;;;;;5034984;28;20052;-70
2021/03/10 07:19:09;;;;;;;51.77;24.50;;;5.40;99.90;;;;;;5036331;28;21107;-70
2021/03/10 07:21:40;;;;;;;52.60;24.60;;;5.40;99.90;;;;;;5034910;28;20490;-71
2021/03/10 07:24:13;;;;;;;46.40;22.87;;;5.50;99.90;;;;;;5035676;28;20056;-70
2021/03/10 07:26:42;;;;;;;50.70;23.87;;;5.40;99.90;;;;;;5038269;28;20053;-70
2021/03/10 07:29:09;;;;;;;48.77;22.97;;;5.50;99.90;;;;;;5036483;28;20076;-70
2021/03/10 07:31:37;;;;;;;52.43;23.10;;;5.60;99.90;;;;;;5038905;28;20094;-70
2021/03/10 07:34:03;;;;;;;51.17;24.07;;;5.70;99.90;;;;;;5037884;28;20090;-70
2021/03/10 07:36:38;;;;;;;55.90;25.93;;;5.60;99.90;;;;;;5039922;28;20209;-70
2021/03/10 07:39:06;;;;;;;53.10;25.67;;;5.50;99.90;;;;;;5038667;28;20127;-70
2021/03/10 07:41:35;;;;;;;50.37;23.80;;;5.60;99.90;;;;;;5038030;28;20048;-70
2021/03/10 07:44:02;;;;;;;53.30;24.43;;;5.70;99.90;;;;;;5036579;28;20048;-69
2021/03/10 07:46:31;;;;;;;50.33;24.77;;;5.60;99.90;;;;;;5037159;28;20040;-70
2021/03/10 07:49:01;;;;;;;52.23;24.37;;;5.80;99.90;;;;;;5035879;28;20098;-70
2021/03/10 07:51:31;;;;;;;53.30;25.73;;;5.90;99.90;;;;;;5037044;28;21246;-71
2021/03/10 07:53:58;;;;;;;53.63;24.90;;;5.80;99.90;;;;;;5034641;28;20049;-71
2021/03/10 07:56:26;;;;;;;54.20;25.80;;;6.00;99.90;;;;;;5035648;28;20112;-70
2021/03/10 07:58:53;;;;;;;52.80;24.13;;;6.00;99.90;;;;;;5035629;28;20075;-71
2021/03/10 08:01:19;;;;;;;60.23;25.40;;;6.20;99.90;;;;;;5039204;28;20064;-70
2021/03/10 08:03:46;;;;;;;50.67;24.47;;;6.20;99.90;;;;;;5031689;28;20127;-70
2021/03/10 08:06:14;;;;;;;55.73;26.07;;;6.20;99.90;;;;;;5032236;28;20052;-70
2021/03/10 08:08:42;;;;;;;52.53;23.70;;;6.30;99.90;;;;;;5036013;28;20084;-70
2021/03/10 08:11:36;;;;;;;49.90;23.30;;;6.70;99.90;;;;;;5040412;28;20052;-70
2021/03/10 08:14:02;;;;;;;53.90;25.63;;;6.80;99.90;;;;;;5065636;28;20052;-67
2021/03/10 08:16:29;;;;;;;51.97;24.02;;;7.00;99.90;;;;;;5043408;28;20749;-67
2021/03/10 08:18:56;;;;;;;48.97;23.60;;;7.10;99.90;;;;;;5045447;28;20045;-67
2021/03/10 08:21:24;;;;;;;50.97;24.08;;;7.20;99.90;;;;;;5052008;28;20052;-66
2021/03/10 08:23:50;;;;;;;47.73;23.23;;;7.30;99.90;;;;;;5050600;28;20574;-66
2021/03/10 08:26:17;;;;;;;;;;;7.30;99.90;;;;;;5057546;28;20408;-67
2021/03/10 08:28:44;;;;;;;48.63;24.17;;;7.20;99.90;;;;;;5053979;28;21153;-66
2021/03/10 08:31:12;;;;;;;46.10;22.95;;;7.30;99.90;;;;;;5047262;28;20053;-67
2021/03/10 08:33:46;;;;;;;49.05;22.70;;;7.40;99.90;;;;;;5050436;28;20071;-67
2021/03/10 08:36:12;;;;;;;48.20;22.73;;;7.40;99.90;;;;;;5046314;28;20513;-66
2021/03/10 08:38:43;;;;;;;50.65;24.27;;;7.40;99.90;;;;;;5048176;28;20678;-70
2021/03/10 08:41:10;;;;;;;50.95;23.83;;;7.40;99.90;;;;;;5052238;28;20421;-67
2021/03/10 08:43:37;;;;;;;45.92;22.83;;;7.60;99.90;;;;;;5037004;28;20535;-66
2021/03/10 08:46:04;;;;;;;45.47;22.90;;;7.80;99.90;;;;;;5032777;28;20076;-65
2021/03/10 08:48:33;;;;;;;45.85;22.77;;;7.80;99.90;;;;;;5043040;28;20472;-66
2021/03/10 08:51:01;;;;;;;48.42;23.15;;;7.80;99.90;;;;;;5042052;28;20053;-67
2021/03/10 08:53:28;;;;;;;46.08;22.92;;;7.90;99.90;;;;;;5041507;28;20178;-67
2021/03/10 08:56:05;;;;;;;49.65;23.48;;;7.90;99.90;;;;;;5043330;28;20044;-67
2021/03/10 08:58:31;;;;;;;;;;;8.00;99.90;;;;;;5044827;28;20190;-66
2021/03/10 09:00:58;;;;;;;46.80;22.05;;;8.10;99.90;;;;;;5044113;28;20438;-68
2021/03/10 09:03:24;;;;;;;;;;;8.20;99.90;;;;;;5046837;28;20140;-67
2021/03/10 09:05:52;;;;;;;45.80;22.75;;;8.20;99.90;;;;;;5049111;28;19928;-67
2021/03/10 09:08:23;;;;;;;48.50;22.80;;;8.20;99.90;;;;;;5050658;28;20528;-70
2021/03/10 09:10:51;;;;;;;50.63;22.80;;;8.20;99.90;;;;;;5049722;28;20074;-67
2021/03/10 09:13:20;;;;;;;50.13;24.95;;;8.20;99.90;;;;;;5048603;28;20083;-67
2021/03/10 09:15:46;;;;;;;48.47;23.55;;;8.10;99.90;;;;;;5058219;28;20067;-67
2021/03/10 09:18:13;;;;;;;49.13;23.25;;;8.10;99.90;;;;;;5051530;28;20088;-67
2021/03/10 09:20:42;;;;;;;50.83;23.00;;;8.10;99.90;;;;;;5053283;28;20052;-65
2021/03/10 09:23:10;;;;;;;45.38;21.80;;;8.10;99.90;;;;;;5053481;28;20076;-67
2021/03/10 09:25:38;;;;;;;50.25;22.65;;;8.10;99.90;;;;;;5053830;28;20105;-64
2021/03/10 09:28:08;;;;;;;51.78;24.17;;;8.00;99.90;;;;;;5052510;28;20063;-65
2021/03/10 09:30:38;;;;;;;50.85;23.75;;;8.00;99.90;;;;;;5050754;28;20056;-65
2021/03/10 09:33:05;;;;;;;49.38;22.95;;;8.00;99.90;;;;;;5052362;28;21362;-65
2021/03/10 09:35:34;;;;;;;45.05;22.00;;;8.00;99.90;;;;;;5046623;28;20131;-66
2021/03/10 09:38:05;;;;;;;46.92;23.42;;;8.00;99.90;;;;;;5044200;28;20052;-65
2021/03/10 09:40:41;;;;;;;51.92;23.27;;;8.10;99.90;;;;;;5045338;28;20048;-66
2021/03/10 09:43:09;;;;;;;47.03;23.90;;;8.20;99.90;;;;;;5037124;28;20087;-66
2021/03/10 09:45:38;;;;;;;47.97;21.85;;;8.30;99.90;;;;;;5038373;28;20076;-69
2021/03/10 09:48:07;;;;;;;49.40;22.13;;;8.30;99.90;;;;;;5033866;28;20052;-68
2021/03/10 09:50:36;;;;;;;43.53;20.52;;;8.20;99.90;;;;;;5036683;28;20476;-68
2021/03/10 09:53:12;;;;;;;44.60;21.55;;;8.20;99.90;;;;;;5035303;28;20048;-68
2021/03/10 09:55:39;;;;;;;42.13;19.38;;;7.80;99.90;;;;;;5035727;28;20056;-68
2021/03/10 09:58:07;;;;;;;44.35;19.48;;;7.80;99.90;;;;;;5033454;28;20475;-68
2021/03/10 10:00:34;;;;;;;45.65;20.08;;;7.60;99.90;;;;;;5036560;28;20474;-69
2021/03/10 10:03:02;;;;;;;45.85;20.35;;;7.50;99.90;;;;;;5035281;28;20078;-68
2021/03/10 10:05:33;;;;;;;45.15;21.63;;;7.40;99.90;;;;;;5030594;28;20044;-69
2021/03/10 10:08:01;;;;;;;47.57;20.53;;;7.30;99.90;;;;;;5027185;28;20658;-68
2021/03/10 10:10:29;;;;;;;43.03;19.75;;;7.30;99.90;;;;;;5032375;28;20052;-68
2021/03/10 10:12:56;;;;;;;47.95;20.67;;;7.10;99.90;;;;;;5036255;28;20082;-68
2021/03/10 10:15:25;;;;;;;44.33;19.83;;;7.20;99.90;;;;;;5040864;28;20040;-68
2021/03/10 10:17:54;;;;;;;47.63;21.30;;;7.30;99.90;;;;;;5046427;28;20056;-68
2021/03/10 10:20:23;;;;;;;48.30;21.20;;;7.30;99.90;;;;;;5043896;28;20047;-68
2021/03/10 10:22:50;;;;;;;44.80;21.13;;;7.30;99.90;;;;;;5044403;28;20055;-68
2021/03/10 10:25:17;;;;;;;46.67;20.95;;;7.40;99.90;;;;;;5046659;28;20413;-68
2021/03/10 10:27:44;;;;;;;45.93;20.23;;;7.40;99.90;;;;;;5047611;28;20057;-68
2021/03/10 10:30:14;;;;;;;45.47;21.05;;;7.50;99.90;;;;;;5046748;28;20080;-69
2021/03/10 10:32:40;;;;;;;52.53;21.83;;;7.60;99.90;;;;;;5045372;28;20425;-68
2021/03/10 10:35:08;;;;;;;43.67;19.48;;;7.80;99.90;;;;;;5045513;28;20390;-68
2021/03/10 10:37:36;;;;;;;45.53;20.95;;;7.90;99.90;;;;;;5046645;28;20132;-68
2021/03/10 10:40:03;;;;;;;48.97;21.83;;;8.10;99.90;;;;;;5045593;28;21495;-68
2021/03/10 10:42:29;;;;;;;42.17;19.00;;;8.30;99.90;;;;;;5045298;28;20041;-68
2021/03/10 10:44:55;;;;;;;;;;;8.50;99.90;;;;;;5046027;28;20056;-68
2021/03/10 10:47:22;;;;;;;44.28;19.60;;;9.00;99.90;;;;;;5044397;28;19947;-68
2021/03/10 10:49:49;;;;;;;47.40;20.45;;;9.40;99.90;;;;;;5045950;28;20099;-68
2021/03/10 10:52:15;;;;;;;40.97;18.92;;;9.60;99.90;;;;;;5045183;28;20134;-68
2021/03/10 10:54:43;;;;;;;45.42;19.88;;;9.70;99.90;;;;;;5044752;28;20126;-68
2021/03/10 10:57:09;;;;;;;38.88;18.40;;;9.80;99.90;;;;;;5045769;28;20052;-68
2021/03/10 10:59:36;;;;;;;;;;;10.20;99.90;;;;;;5045733;28;20444;-68
2021/03/10 11:02:02;;;;;;;39.17;18.70;;;10.60;99.90;;;;;;5044380;28;20017;-68
2021/03/10 11:04:28;;;;;;;;;;;10.60;99.90;;;;;;5044276;28;20056;-68
2021/03/10 11:06:55;;;;;;;39.22;18.85;;;10.80;99.90;;;;;;5044797;28;19925;-68
2021/03/10 11:09:22;;;;;;;;;;;11.00;99.90;;;;;;5045081;28;20513;-68
2021/03/10 11:11:52;;;;;;;37.78;18.25;;;11.00;99.90;;;;;;5046014;28;19928;-68
2021/03/10 11:14:19;;;;;;;39.22;19.27;;;11.20;99.90;;;;;;5043480;28;20063;-68
2021/03/10 11:16:45;;;;;;;39.60;18.20;;;11.90;99.90;;;;;;5043440;28;20061;-68
2021/03/10 11:19:11;;;;;;;;;;;12.40;99.90;;;;;;5043762;28;20048;-68
2021/03/10 11:21:38;;;;;;;38.30;18.17;;;12.70;99.90;;;;;;5045613;28;19931;-68
2021/03/10 11:24:04;;;;;;;;;;;12.60;99.90;;;;;;5044189;28;20501;-68
2021/03/10 11:26:31;;;;;;;37.13;18.48;;;12.50;99.90;;;;;;5043985;28;19924;-68
2021/03/10 11:28:58;;;;;;;35.58;17.63;;;12.50;99.90;;;;;;5043948;28;20056;-68
2021/03/10 11:31:25;;;;;;;37.65;18.50;;;12.20;99.90;;;;;;5042784;28;20087;-69
2021/03/10 11:33:51;;;;;;;;;;;11.80;99.90;;;;;;5042796;28;20084;-68
2021/03/10 11:36:17;;;;;;;34.42;16.85;;;11.40;99.90;;;;;;5044228;28;19933;-69
2021/03/10 11:38:44;;;;;;;;;;;10.70;99.90;;;;;;5044248;28;20247;-68
2021/03/10 11:41:10;;;;;;;35.65;16.45;;;10.60;99.90;;;;;;5046059;28;19932;-69
2021/03/10 11:43:37;;;;;;;35.72;16.38;;;10.20;99.90;;;;;;5046625;28;20080;-68
2021/03/10 11:46:05;;;;;;;36.55;16.77;;;10.10;99.90;;;;;;5046575;28;20106;-68
2021/03/10 11:48:32;;;;;;;36.20;17.48;;;10.30;99.90;;;;;;5046473;28;20052;-68
2021/03/10 11:50:58;;;;;;;;;;;10.10;99.90;;;;;;5048622;28;20044;-68
2021/03/10 11:53:24;;;;;;;36.20;16.88;;;10.20;99.90;;;;;;5046376;28;19994;-68
2021/03/10 11:55:51;;;;;;;34.13;16.55;;;10.10;99.90;;;;;;5047969;28;20052;-68
2021/03/10 11:58:18;;;;;;;;;;;10.40;99.90;;;;;;5049300;28;20528;-68
2021/03/10 12:00:45;;;;;;;31.77;14.82;;;10.30;99.90;;;;;;5047997;28;19925;-68
2021/03/10 12:03:12;;;;;;;30.90;14.60;;;10.20;99.90;;;;;;5047044;28;20057;-68
2021/03/10 12:05:39;;;;;;;34.92;15.98;;;9.90;99.90;;;;;;5048304;28;20059;-68
2021/03/10 12:08:05;;;;;;;;;;;9.60;99.90;;;;;;5047953;28;20075;-68
2021/03/10 12:10:37;;;;;;;31.27;14.13;;;9.80;99.90;;;;;;5049913;28;19924;-67
2021/03/10 12:13:03;;;;;;;30.95;14.63;;;9.80;99.90;;;;;;5052945;28;20299;-69
2021/03/10 12:15:30;;;;;;;30.42;13.90;;;9.60;99.90;;;;;;5049941;28;20080;-68
2021/03/10 12:17:57;;;;;;;30.27;14.80;;;9.90;99.90;;;;;;5046852;28;20076;-68
2021/03/10 12:20:24;;;;;;;27.83;14.32;;;10.40;99.90;;;;;;5047624;28;20048;-69
2021/03/10 12:22:51;;;;;;;26.25;13.05;;;11.00;99.90;;;;;;5046813;28;20058;-69
2021/03/10 12:25:17;;;;;;;;;;;11.50;99.90;;;;;;5050163;28;21315;-69
2021/03/10 12:27:44;;;;;;;26.58;13.30;;;12.10;99.90;;;;;;5046525;28;19932;-69
2021/03/10 12:30:11;;;;;;;28.85;14.43;;;12.50;99.90;;;;;;5045901;28;20047;-69
2021/03/10 12:32:38;;;;;;;27.35;15.05;;;12.60;99.90;;;;;;5044859;28;20052;-68
2021/03/10 12:35:06;;;;;;;26.75;13.85;;;11.90;99.90;;;;;;5047097;28;20057;-68
2021/03/10 12:37:34;;;;;;;25.77;13.85;;;12.30;99.90;;;;;;5047480;28;20761;-69
2021/03/10 12:40:00;;;;;;;30.10;15.20;;;13.20;99.90;;;;;;5048195;28;20472;-70
2021/03/10 12:42:27;;;;;;;;;;;13.60;99.90;;;;;;5050299;28;20056;-69
2021/03/10 12:44:53;;;;;;;28.58;15.93;;;14.10;99.90;;;;;;5053254;28;19970;-69